Time;durP1;ratioP1;P1;durP2;ratioP2;P2;SDS_P1;SDS_P2;PMS_P1;PMS_P2;Temp;Humidity;BMP_temperature;BMP_pressure;BME280_temperature;BME280_humidity;BME280_pressure;Samples;Min_cycle;Max_cycle;Signal;HPM_P1;HPM_P2
2021/11/23 00:01:25;;;;;;;;;7.75;6.00;;;;;21.28;33.13;102299.19;5097928;27;45403;-59
2021/11/23 00:03:51;;;;;;;;;8.75;5.00;;;;;21.21;33.19;102292.41;5097604;27;45377;-57
2021/11/23 00:06:18;;;;;;;;;5.00;5.00;;;;;21.19;33.05;102296.88;5098063;27;45485;-56
2021/11/23 00:08:43;;;;;;;;;4.50;4.50;;;;;21.13;33.39;102284.75;5098147;27;45526;-57
2021/11/23 00:11:09;;;;;;;;;5.75;4.75;;;;;21.09;33.14;102288.41;5097699;27;45389;-57
2021/11/23 00:13:36;;;;;;;;;6.00;4.00;;;;;21.07;33.08;102290.22;5097660;27;45420;-58
2021/11/23 00:16:02;;;;;;;;;4.00;4.00;;;;;21.05;33.10;102289.44;5097828;27;45434;-57
2021/11/23 00:18:27;;;;;;;;;4.50;4.50;;;;;21.00;33.57;102284.31;5097904;27;45493;-63
2021/11/23 00:20:53;;;;;;;;;5.00;5.00;;;;;20.98;33.48;102286.16;5079299;27;46438;-58
2021/11/23 00:23:18;;;;;;;;;3.00;3.00;;;;;20.96;33.34;102284.47;5098034;27;45354;-63
2021/11/23 00:25:44;;;;;;;;;3.50;3.50;;;;;20.94;33.23;102294.22;5097575;27;45234;-56
2021/11/23 00:28:11;;;;;;;;;4.00;4.00;;;;;20.90;33.19;102272.38;5097271;27;45238;-60
2021/11/23 00:30:38;;;;;;;;;4.00;4.00;;;;;20.85;33.60;102276.94;5097348;27;45377;-60
2021/11/23 00:33:04;;;;;;;;;6.00;3.00;;;;;20.84;33.35;102285.75;5097396;27;45359;-62
2021/11/23 00:35:29;;;;;;;;;3.00;3.00;;;;;20.82;33.33;102277.91;5079247;27;45399;-61
2021/11/23 00:37:56;;;;;;;;;5.00;4.25;;;;;20.80;32.87;102274.47;5097584;27;45267;-63
2021/11/23 00:40:22;;;;;;;;;4.25;4.25;;;;;20.79;33.14;102275.38;5096812;27;46164;-63
2021/11/23 00:42:48;;;;;;;;;5.75;5.75;;;;;20.77;33.60;102276.34;5097450;27;45381;-63
2021/11/23 00:45:15;;;;;;;;;4.00;4.00;;;;;20.71;33.16;102277.38;5097377;27;45322;-59
2021/11/23 00:47:41;;;;;;;;;4.00;4.00;;;;;20.72;33.24;102280.88;5097374;27;45330;-63
2021/11/23 00:50:08;;;;;;;;;7.00;3.75;;;;;20.69;33.27;102273.94;5097232;27;46441;-64
2021/11/23 00:52:33;;;;;;;;;3.75;3.00;;;;;20.67;33.13;102281.88;5097200;27;45968;-60
2021/11/23 00:54:59;;;;;;;;;4.25;3.00;;;;;20.66;33.15;102280.16;5097402;27;45325;-62
2021/11/23 00:57:24;;;;;;;;;4.00;4.00;;;;;20.65;33.68;102280.19;5097459;27;45395;-63
2021/11/23 00:59:50;;;;;;;;;2.00;2.00;;;;;20.63;33.03;102274.13;5097108;27;45452;-60
2021/11/23 01:02:15;;;;;;;;;3.25;3.00;;;;;20.60;33.24;102275.09;5097022;27;45341;-61
2021/11/23 01:04:41;;;;;;;;;2.50;2.50;;;;;20.59;33.08;102275.16;5096846;27;45761;-62
2021/11/23 01:07:06;;;;;;;;;4.00;4.00;;;;;20.59;33.54;102269.88;5097045;27;45362;-57
2021/11/23 01:09:31;;;;;;;;;3.25;3.25;;;;;20.57;33.50;102283.09;5096768;27;48639;-58
2021/11/23 01:11:57;;;;;;;;;4.00;3.75;;;;;20.54;33.46;102275.31;5096831;27;45445;-59
2021/11/23 01:14:22;;;;;;;;;4.75;3.50;;;;;20.52;33.34;102277.13;5097383;27;45433;-62
2021/11/23 01:16:49;;;;;;;;;3.00;3.00;;;;;20.51;33.47;102278.03;5097054;27;45225;-61
2021/11/23 01:19:18;;;;;;;;;3.50;3.50;;;;;20.48;33.19;102280.75;5096728;27;46687;-64
2021/11/23 01:21:44;;;;;;;;;4.75;3.50;;;;;20.50;33.44;102281.56;5096874;27;45359;-57
2021/11/23 01:24:11;;;;;;;;;4.25;3.00;;;;;20.46;33.56;102277.28;5096796;27;45373;-60
2021/11/23 01:26:36;;;;;;;;;2.75;2.75;;;;;20.46;33.51;102282.56;5078865;27;45442;-60
2021/11/23 01:29:03;;;;;;;;;3.00;3.00;;;;;20.45;33.22;102280.88;5095182;27;47944;-57
2021/11/23 01:31:28;;;;;;;;;4.50;4.50;;;;;20.47;33.52;102284.28;5096626;27;45335;-58
2021/11/23 01:33:54;;;;;;;;;3.25;3.25;;;;;20.48;33.13;102286.91;5097075;27;45354;-57
2021/11/23 01:36:19;;;;;;;;;3.25;3.25;;;;;20.50;33.34;102292.09;5078590;27;45367;-63
2021/11/23 01:38:45;;;;;;;;;6.00;3.75;;;;;20.51;33.45;102283.28;5096460;27;46109;-60
2021/11/23 01:41:10;;;;;;;;;3.00;3.00;;;;;20.57;33.44;102287.50;5099892;27;45234;-56
2021/11/23 01:43:36;;;;;;;;;4.00;4.00;;;;;20.60;33.48;102280.34;5098984;27;45291;-58
2021/11/23 01:46:02;;;;;;;;;4.00;4.00;;;;;20.64;33.68;102283.75;5100294;27;45265;-58
2021/11/23 01:48:27;;;;;;;;;3.25;3.25;;;;;20.70;33.20;102280.94;5100284;27;45598;-57
2021/11/23 01:50:54;;;;;;;;;3.50;3.50;;;;;20.74;33.50;102287.81;5100322;27;45312;-58
2021/11/23 01:53:19;;;;;;;;;3.00;3.00;;;;;20.81;33.52;102285.84;5100198;27;45342;-56
2021/11/23 01:55:45;;;;;;;;;3.75;3.75;;;;;20.84;33.34;102293.66;5100351;27;45579;-57
2021/11/23 01:58:13;;;;;;;;;4.50;3.00;;;;;20.90;33.51;102288.19;5099858;27;45443;-56
2021/11/23 02:00:39;;;;;;;;;3.00;3.00;;;;;20.93;33.51;102296.00;5099757;27;45194;-55
2021/11/23 02:03:05;;;;;;;;;4.00;2.00;;;;;20.97;33.53;102297.63;5100088;27;45234;-57
2021/11/23 02:05:30;;;;;;;;;3.00;3.00;;;;;20.99;33.28;102301.06;5100061;27;45605;-56
2021/11/23 02:07:55;;;;;;;;;4.25;3.00;;;;;21.04;33.31;102305.31;5099760;27;46012;-54
2021/11/23 02:10:21;;;;;;;;;1.50;1.00;;;;;21.06;33.05;102292.94;5099793;27;45556;-60
2021/11/23 02:12:48;;;;;;;;;3.25;3.25;;;;;21.11;33.38;102298.94;5099801;27;45206;-61
2021/11/23 02:15:14;;;;;;;;;3.00;3.00;;;;;21.12;33.03;102298.84;5099906;27;45568;-61
2021/11/23 02:17:42;;;;;;;;;4.00;4.00;;;;;21.14;33.28;102304.94;5099549;27;46500;-62
2021/11/23 02:20:12;;;;;;;;;2.75;2.75;;;;;21.17;33.38;102296.06;5099586;27;45393;-60
2021/11/23 02:22:38;;;;;;;;;4.75;3.50;;;;;21.18;33.34;102297.78;5099768;27;45353;-57
2021/11/23 02:25:05;;;;;;;;;4.25;4.25;;;;;21.22;33.08;102298.53;5099663;27;45614;-60
2021/11/23 02:27:31;;;;;;;;;2.75;2.75;;;;;21.21;33.43;102297.69;5099224;27;46728;-61
2021/11/23 02:29:56;;;;;;;;;4.00;4.00;;;;;21.25;33.21;102291.38;5098459;27;45335;-62
2021/11/23 02:32:21;;;;;;;;;3.50;3.25;;;;;21.27;32.82;102292.19;5099571;27;45326;-61
2021/11/23 02:34:47;;;;;;;;;1.50;1.50;;;;;21.30;33.11;102305.28;5099684;27;45377;-60
2021/11/23 02:37:12;;;;;;;;;4.25;3.00;;;;;21.31;33.00;102293.81;5099231;27;46475;-62
2021/11/23 02:39:38;;;;;;;;;3.00;3.00;;;;;21.30;32.94;102285.94;5099175;27;45829;-61
2021/11/23 02:42:03;;;;;;;;;4.00;2.75;;;;;21.30;33.14;102289.44;5099641;27;45330;-60
2021/11/23 02:44:29;;;;;;;;;4.00;4.00;;;;;21.31;32.99;102288.53;5099485;27;45484;-56
2021/11/23 02:46:54;;;;;;;;;2.00;2.00;;;;;21.29;32.92;102285.09;5099286;27;46675;-61
2021/11/23 02:49:21;;;;;;;;;3.25;3.25;;;;;21.30;33.04;102285.94;5097811;27;45415;-53
2021/11/23 02:51:47;;;;;;;;;4.50;3.00;;;;;21.28;32.61;102280.72;5098783;27;45437;-55
2021/11/23 02:54:13;;;;;;;;;5.00;4.00;;;;;21.28;32.67;102279.84;5099295;27;45326;-55
2021/11/23 02:56:38;;;;;;;;;3.25;3.25;;;;;21.27;33.00;102284.28;5098913;27;46262;-54
2021/11/23 02:59:04;;;;;;;;;3.75;3.50;;;;;21.27;32.55;102276.38;5098808;27;45386;-52
2021/11/23 03:01:29;;;;;;;;;1.50;1.50;;;;;21.26;33.07;102279.91;5098986;27;45389;-56
2021/11/23 03:03:56;;;;;;;;;3.00;3.00;;;;;21.26;32.43;102282.53;5099540;27;45558;-51
2021/11/23 03:06:22;;;;;;;;;4.00;3.00;;;;;21.25;32.72;102280.81;5098636;27;46412;-55
2021/11/23 03:08:50;;;;;;;;;1.75;1.75;;;;;21.23;33.12;102276.53;5098823;27;45272;-52
2021/11/23 03:11:17;;;;;;;;;3.00;3.00;;;;;21.21;32.50;102270.44;5098885;27;45220;-54
2021/11/23 03:13:43;;;;;;;;;2.75;2.75;;;;;21.18;32.63;102274.06;5099145;27;45671;-58
2021/11/23 03:16:09;;;;;;;;;3.00;3.00;;;;;21.17;32.63;102274.97;5098646;27;45443;-58
2021/11/23 03:18:34;;;;;;;;;2.50;2.50;;;;;21.17;32.98;102269.69;5097264;27;45462;-60
2021/11/23 03:21:00;;;;;;;;;2.75;2.75;;;;;21.16;32.59;102267.97;5099086;27;45308;-59
2021/11/23 03:23:26;;;;;;;;;5.75;4.00;;;;;21.14;32.86;102265.41;5099142;27;45412;-60
2021/11/23 03:25:51;;;;;;;;;5.25;2.50;;;;;21.13;33.11;102268.06;5096954;27;47070;-59
2021/11/23 03:28:16;;;;;;;;;2.25;2.25;;;;;21.14;32.96;102275.06;5098522;27;45330;-55
2021/11/23 03:30:42;;;;;;;;;3.50;3.50;;;;;21.12;32.56;102254.03;5080302;27;45253;-58
2021/11/23 03:33:09;;;;;;;;;3.00;3.00;;;;;21.11;32.47;102257.59;5098695;27;45265;-61
2021/11/23 03:35:39;;;;;;;;;3.50;3.50;;;;;21.10;32.71;102257.66;5098282;27;45589;-58
2021/11/23 03:38:06;;;;;;;;;3.50;2.75;;;;;21.08;32.33;102251.56;5098292;27;45828;-53
2021/11/23 03:40:34;;;;;;;;;3.00;3.00;;;;;21.07;32.53;102257.75;5080017;27;45519;-52
2021/11/23 03:43:00;;;;;;;;;3.00;2.50;;;;;21.05;32.53;102260.44;5099018;27;45481;-54
2021/11/23 03:45:26;;;;;;;;;2.75;2.75;;;;;21.04;32.54;102260.50;5097984;27;46442;-54
2021/11/23 03:47:52;;;;;;;;;3.00;3.00;;;;;21.00;32.99;102255.31;5098193;27;45213;-58
2021/11/23 03:50:18;;;;;;;;;4.75;3.50;;;;;21.00;32.32;102251.84;5079926;27;45414;-56
2021/11/23 03:52:46;;;;;;;;;3.00;3.00;;;;;20.96;32.75;102247.56;5098337;27;45446;-54
2021/11/23 03:55:15;;;;;;;;;2.50;2.00;;;;;20.96;32.42;102245.81;5097911;27;45581;-58
2021/11/23 03:57:42;;;;;;;;;3.75;3.75;;;;;20.96;32.58;102247.56;5098090;27;45244;-57
2021/11/23 04:00:09;;;;;;;;;3.00;3.00;;;;;20.97;32.99;102250.19;5098294;27;45247;-58
2021/11/23 04:02:34;;;;;;;;;5.75;3.50;;;;;20.96;32.55;102243.19;5097367;27;45405;-57
2021/11/23 04:05:00;;;;;;;;;2.75;2.75;;;;;20.98;32.89;102246.63;5098093;27;45329;-57
2021/11/23 04:07:25;;;;;;;;;3.25;2.75;;;;;20.99;32.62;102251.00;5097529;27;45336;-54
2021/11/23 04:09:50;;;;;;;;;1.00;1.00;;;;;21.03;33.04;102264.91;5098022;27;45331;-54
2021/11/23 04:12:16;;;;;;;;;3.75;3.75;;;;;21.06;32.78;102264.78;5098039;27;45560;-62
2021/11/23 04:14:43;;;;;;;;;2.00;2.00;;;;;21.09;32.58;102251.50;5097807;27;46318;-58
2021/11/23 04:17:09;;;;;;;;;2.00;2.00;;;;;21.13;32.85;102265.44;5097749;27;45478;-59
2021/11/23 04:19:35;;;;;;;;;2.00;2.00;;;;;21.15;32.95;102261.84;5097927;27;45245;-59
2021/11/23 04:22:02;;;;;;;;;3.25;3.25;;;;;21.19;32.54;102273.16;5098239;27;45552;-57
2021/11/23 04:24:28;;;;;;;;;5.00;3.50;;;;;21.23;32.70;102263.34;5097382;27;47293;-60
2021/11/23 04:26:53;;;;;;;;;3.25;3.25;;;;;21.25;32.58;102270.28;5079346;27;45835;-52
2021/11/23 04:29:19;;;;;;;;;2.00;2.00;;;;;21.29;32.44;102266.63;5097818;27;45360;-56
2021/11/23 04:31:44;;;;;;;;;3.50;3.00;;;;;21.29;32.83;102258.72;5097772;27;45729;-59
2021/11/23 04:34:10;;;;;;;;;2.25;2.25;;;;;21.33;32.73;102259.47;5097324;27;46336;-62
2021/11/23 04:36:35;;;;;;;;;5.00;2.50;;;;;21.34;32.32;102261.19;5097318;27;45361;-56
2021/11/23 04:39:03;;;;;;;;;2.50;2.50;;;;;21.37;32.86;102253.16;5097861;27;45903;-51
2021/11/23 04:41:28;;;;;;;;;4.00;3.50;;;;;21.39;32.49;102258.38;5097593;27;45247;-53
2021/11/23 04:43:55;;;;;;;;;3.00;3.00;;;;;21.41;32.88;102262.66;5097294;27;46356;-58
2021/11/23 04:46:21;;;;;;;;;3.00;3.00;;;;;21.42;32.43;102269.66;5097278;27;45675;-53
2021/11/23 04:48:47;;;;;;;;;2.25;2.25;;;;;21.44;32.61;102262.56;5097634;27;45394;-52
2021/11/23 04:51:12;;;;;;;;;2.50;2.50;;;;;21.47;32.56;102273.00;5079034;27;45517;-53
2021/11/23 04:53:38;;;;;;;;;2.00;2.00;;;;;21.49;32.51;102272.94;5097128;27;45594;-51
2021/11/23 04:56:03;;;;;;;;;4.00;4.00;;;;;21.49;32.39;102267.66;5096176;27;45348;-52
2021/11/23 04:58:29;;;;;;;;;5.00;2.50;;;;;21.51;32.00;102263.19;5097245;27;45331;-52
2021/11/23 05:00:54;;;;;;;;;2.50;2.50;;;;;21.52;32.64;102264.06;5097424;27;45826;-53
2021/11/23 05:03:19;;;;;;;;;3.00;3.00;;;;;21.50;32.72;102258.84;5078640;27;46496;-54
2021/11/23 05:05:44;;;;;;;;;4.25;2.75;;;;;21.53;32.01;102263.13;5096662;27;45780;-57
2021/11/23 05:08:10;;;;;;;;;2.00;2.00;;;;;21.54;32.19;102265.75;5097029;27;45382;-57
2021/11/23 05:10:35;;;;;;;;;2.00;2.00;;;;;21.54;32.14;102265.75;5097309;27;45514;-55
2021/11/23 05:13:01;;;;;;;;;3.50;3.50;;;;;21.53;32.49;102269.28;5097406;27;45403;-53
2021/11/23 05:15:26;;;;;;;;;6.00;3.00;;;;;21.53;32.18;102276.31;5103823;27;45390;-52
2021/11/23 05:17:51;;;;;;;;;2.75;2.75;;;;;21.53;32.22;102276.31;5103783;27;45249;-53
2021/11/23 05:20:17;;;;;;;;;3.75;2.75;;;;;21.51;32.50;102268.47;5085669;27;45600;-56
2021/11/23 05:22:42;;;;;;;;;3.00;3.00;;;;;21.51;32.38;102275.50;5103669;27;46334;-54
2021/11/23 05:25:09;;;;;;;;;3.75;2.75;;;;;21.50;32.31;102263.28;5103466;27;45458;-54
2021/11/23 05:27:37;;;;;;;;;2.00;2.00;;;;;21.49;32.45;102270.31;5104105;27;45258;-55
2021/11/23 05:30:03;;;;;;;;;3.25;2.50;;;;;21.46;32.24;102278.31;5104120;27;45221;-60
2021/11/23 05:32:30;;;;;;;;;2.00;2.00;;;;;21.46;31.92;102278.31;5103398;27;45788;-59
2021/11/23 05:34:56;;;;;;;;;3.00;3.00;;;;;21.45;32.09;102284.50;5103441;27;45325;-61
2021/11/23 05:37:21;;;;;;;;;3.00;1.75;;;;;21.43;32.34;102294.28;5103553;27;45451;-62
2021/11/23 05:39:46;;;;;;;;;2.75;2.75;;;;;21.40;32.42;102283.84;5103729;27;45897;-58
2021/11/23 05:42:12;;;;;;;;;4.25;4.25;;;;;21.39;32.39;102297.94;5103412;27;46591;-59
2021/11/23 05:44:37;;;;;;;;;2.25;2.00;;;;;21.38;32.14;102298.84;5103390;27;45540;-53
2021/11/23 05:47:04;;;;;;;;;3.00;3.00;;;;;21.35;32.17;102285.75;5103663;27;45398;-60
2021/11/23 05:49:29;;;;;;;;;2.00;2.00;;;;;21.34;32.08;102284.03;5102175;27;45525;-62
2021/11/23 05:51:55;;;;;;;;;2.75;2.75;;;;;21.34;32.16;102297.22;5103155;27;45772;-56
2021/11/23 05:54:21;;;;;;;;;2.75;2.75;;;;;21.33;32.39;102301.66;5103334;27;45347;-52
2021/11/23 05:56:47;;;;;;;;;3.00;3.00;;;;;21.31;32.43;102303.47;5103379;27;45271;-56
2021/11/23 05:59:13;;;;;;;;;3.00;3.00;;;;;21.27;32.14;102292.19;5103515;27;45324;-57
2021/11/23 06:01:39;;;;;;;;;2.50;2.50;;;;;21.27;32.35;102308.00;5102966;27;45418;-55
2021/11/23 06:04:04;;;;;;;;;3.00;3.00;;;;;21.24;32.05;102294.91;5103306;27;45932;-56
2021/11/23 06:06:30;;;;;;;;;2.25;2.25;;;;;21.23;32.27;102306.38;5102997;27;45268;-61
2021/11/23 06:08:56;;;;;;;;;2.25;2.25;;;;;21.23;31.80;102309.00;5103309;27;45342;-57
2021/11/23 06:11:21;;;;;;;;;3.00;3.00;;;;;21.20;32.08;102306.50;5102870;27;46050;-62
2021/11/23 06:13:47;;;;;;;;;2.75;2.00;;;;;21.18;32.09;102310.97;5102910;27;45430;-62
2021/11/23 06:16:15;;;;;;;;;4.25;2.00;;;;;21.15;32.32;102309.31;5103106;27;45338;-62
2021/11/23 06:18:40;;;;;;;;;2.75;2.50;;;;;21.12;32.17;102293.59;5103081;27;45550;-59
2021/11/23 06:21:07;;;;;;;;;3.00;2.75;;;;;21.10;32.21;102295.41;5103224;27;45343;-62
2021/11/23 06:23:32;;;;;;;;;2.00;2.00;;;;;21.11;31.98;102301.56;5102849;27;45254;-59
2021/11/23 06:25:59;;;;;;;;;3.00;3.00;;;;;21.09;32.06;102303.38;5100028;27;45366;-60
2021/11/23 06:28:25;;;;;;;;;3.00;3.00;;;;;21.07;32.24;102302.56;5099827;27;45328;-58
2021/11/23 06:30:50;;;;;;;;;4.25;4.25;;;;;21.08;32.13;102304.28;5099418;27;45363;-55
2021/11/23 06:33:16;;;;;;;;;3.00;3.00;;;;;21.09;32.03;102300.75;5099368;27;45922;-54
2021/11/23 06:35:42;;;;;;;;;3.00;3.00;;;;;21.10;32.06;102298.03;5099352;27;45300;-54
2021/11/23 06:38:08;;;;;;;;;3.00;3.00;;;;;21.12;32.31;102298.84;5099916;27;45620;-56
2021/11/23 06:40:36;;;;;;;;;2.00;2.00;;;;;21.15;32.04;102297.88;5099081;27;46546;-53
2021/11/23 06:43:02;;;;;;;;;1.25;1.25;;;;;21.17;32.02;102306.59;5099357;27;45343;-53
2021/11/23 06:45:27;;;;;;;;;3.00;1.75;;;;;21.20;32.28;102311.78;5099245;27;45409;-55
2021/11/23 06:47:53;;;;;;;;;4.00;3.00;;;;;21.24;32.13;102323.06;5099378;27;45275;-54
2021/11/23 06:50:18;;;;;;;;;2.00;2.00;;;;;21.27;32.34;102321.19;5098965;27;46120;-57
2021/11/23 06:52:44;;;;;;;;;3.50;3.00;;;;;21.31;32.01;102328.09;5099065;27;45601;-54
2021/11/23 06:55:10;;;;;;;;;3.25;3.00;;;;;21.27;32.37;102313.28;5099533;27;45461;-58
2021/11/23 06:57:35;;;;;;;;;1.75;1.00;;;;;21.36;32.39;102321.78;5099353;27;45439;-55
2021/11/23 07:00:01;;;;;;;;;1.00;0.75;;;;;21.38;32.34;102323.47;5099149;27;45997;-54
2021/11/23 07:02:26;;;;;;;;;3.00;3.00;;;;;21.41;32.19;102330.41;5098837;27;45368;-55
2021/11/23 07:04:52;;;;;;;;;3.00;2.00;;;;;21.43;31.99;102333.84;5098877;27;45453;-57
2021/11/23 07:07:17;;;;;;;;;2.50;2.50;;;;;21.45;32.22;102326.72;5099101;27;45529;-61
2021/11/23 07:09:43;;;;;;;;;2.25;2.25;;;;;21.48;31.99;102337.16;5098864;27;45300;-53
2021/11/23 07:12:10;;;;;;;;;2.25;2.25;;;;;21.50;32.28;102334.50;5080853;27;45343;-62
2021/11/23 07:14:39;;;;;;;;;6.00;5.00;;;;;21.48;31.64;102342.44;5099103;27;45312;-63
2021/11/23 07:17:05;;;;;;;;;5.75;5.75;;;;;21.46;31.24;102339.00;5098986;27;45404;-60
2021/11/23 07:19:31;;;;;;;;;5.00;5.00;;;;;21.46;31.31;102339.00;5098862;27;45491;-64
2021/11/23 07:21:56;;;;;;;;;6.25;4.75;;;;;21.45;31.04;102347.81;5098745;27;45371;-64
2021/11/23 07:24:22;;;;;;;;;4.75;4.75;;;;;21.43;30.94;102344.41;5098774;27;45389;-61
2021/11/23 07:26:47;;;;;;;;;4.75;4.25;;;;;21.41;30.72;102346.22;5098911;27;45268;-65
2021/11/23 07:29:13;;;;;;;;;7.75;7.00;;;;;21.39;30.63;102348.06;5098557;27;45420;-64
2021/11/23 07:31:40;;;;;;;;;7.50;6.25;;;;;21.37;30.55;102350.75;5098710;27;45270;-61
2021/11/23 07:34:06;;;;;;;;;6.75;5.50;;;;;21.35;29.98;102354.34;5098640;27;45295;-61
2021/11/23 07:36:32;;;;;;;;;4.75;4.75;;;;;21.33;30.00;102358.81;5098064;27;45532;-57
2021/11/23 07:39:00;;;;;;;;;4.50;4.50;;;;;21.29;29.94;102374.75;5079444;27;45670;-60
2021/11/23 07:41:26;;;;;;;;;5.75;5.75;;;;;21.25;29.72;102370.47;5098411;27;45400;-63
2021/11/23 07:43:51;;;;;;;;;5.75;4.25;;;;;21.23;29.96;102374.94;5098456;27;45313;-63
2021/11/23 07:46:17;;;;;;;;;6.25;4.50;;;;;21.21;30.06;102371.53;5098499;27;45375;-56
2021/11/23 07:48:42;;;;;;;;;4.00;3.50;;;;;21.19;30.21;102383.88;5098340;27;45407;-51
2021/11/23 07:51:07;;;;;;;;;4.25;4.25;;;;;21.18;30.24;102376.88;5098462;27;45334;-52
2021/11/23 07:53:33;;;;;;;;;7.25;6.50;;;;;21.16;30.44;102381.34;5098333;27;45359;-48
2021/11/23 07:55:58;;;;;;;;;8.75;6.00;;;;;21.17;30.33;102383.06;5098421;27;45596;-54
2021/11/23 07:58:24;;;;;;;;;5.00;5.00;;;;;21.17;29.86;102396.25;5097972;27;46120;-53
2021/11/23 08:00:50;;;;;;;;;3.75;3.25;;;;;21.14;29.89;102393.72;5097905;27;45156;-55
2021/11/23 08:03:15;;;;;;;;;7.75;4.00;;;;;21.13;29.79;102395.50;5098222;27;45307;-55
2021/11/23 08:05:41;;;;;;;;;4.50;4.50;;;;;21.11;29.73;102391.19;5098485;27;45731;-56
2021/11/23 08:08:08;;;;;;;;;5.00;5.00;;;;;21.10;30.20;102394.75;5098052;27;45609;-55
2021/11/23 08:10:35;;;;;;;;;5.00;5.00;;;;;21.10;29.60;102392.09;5097974;27;45939;-53
2021/11/23 08:13:00;;;;;;;;;3.50;3.50;;;;;21.03;29.63;102388.81;5098232;27;45358;-55
2021/11/23 08:15:26;;;;;;;;;5.75;4.75;;;;;21.05;29.50;102402.81;5098208;27;45571;-56
2021/11/23 08:17:52;;;;;;;;;5.00;4.00;;;;;21.02;29.72;102397.63;5097893;27;46381;-61
2021/11/23 08:20:18;;;;;;;;;4.25;3.75;;;;;21.03;29.80;102409.00;5097826;27;45279;-61
2021/11/23 08:22:45;;;;;;;;;2.50;2.00;;;;;21.00;29.79;102410.00;5098292;27;45312;-60
2021/11/23 08:25:11;;;;;;;;;5.00;4.00;;;;;20.97;29.84;102405.69;5098239;27;45232;-61
2021/11/23 08:27:36;;;;;;;;;5.50;5.50;;;;;20.94;29.52;102411.03;5097662;27;45582;-54
2021/11/23 08:30:04;;;;;;;;;5.00;4.50;;;;;20.93;29.53;102409.31;5097519;27;45182;-58
2021/11/23 08:32:29;;;;;;;;;4.50;4.50;;;;;20.90;29.54;102406.78;5097681;27;45410;-58
2021/11/23 08:34:55;;;;;;;;;5.00;3.75;;;;;20.87;29.50;102404.25;5097829;27;45426;-57
2021/11/23 08:37:20;;;;;;;;;6.00;6.00;;;;;20.85;29.42;102412.19;5097370;27;46348;-61
2021/11/23 08:39:45;;;;;;;;;6.75;6.00;;;;;20.82;29.31;102407.03;5097579;27;45502;-53
2021/11/23 08:42:12;;;;;;;;;5.00;5.00;;;;;20.80;29.07;102403.59;5097850;27;45339;-60
2021/11/23 08:44:38;;;;;;;;;6.25;5.00;;;;;20.77;28.95;102397.56;5097647;27;45383;-56
2021/11/23 08:47:04;;;;;;;;;4.75;4.00;;;;;20.74;28.97;102402.88;5097291;27;45520;-61
2021/11/23 08:49:29;;;;;;;;;4.25;4.25;;;;;20.71;29.54;102395.94;5078487;27;45731;-58
2021/11/23 08:51:56;;;;;;;;;4.00;4.00;;;;;20.68;28.90;102393.41;5097414;27;45315;-58
2021/11/23 08:54:22;;;;;;;;;4.75;4.75;;;;;20.66;28.79;102401.34;5097553;27;45582;-63
2021/11/23 08:57:02;;;;;;;;;3.00;3.00;;;;;20.63;28.80;102390.91;5097177;27;45342;-58
2021/11/23 08:59:29;;;;;;;;;5.50;4.00;;;;;20.62;29.09;102398.84;5096945;27;45926;-54
2021/11/23 09:01:54;;;;;;;;;5.50;4.00;;;;;20.60;29.19;102406.81;5097310;27;45190;-56
2021/11/23 09:04:19;;;;;;;;;4.00;4.00;;;;;20.61;29.17;102397.13;5097245;27;45465;-57
2021/11/23 09:06:45;;;;;;;;;6.25;5.50;;;;;20.57;29.40;102396.34;5092889;27;46085;-57
2021/11/23 09:09:11;;;;;;;;;6.00;4.00;;;;;20.57;29.29;102393.72;5096915;27;45361;-58
2021/11/23 09:11:38;;;;;;;;;5.00;3.00;;;;;20.55;28.96;102406.09;5096641;27;45255;-48
2021/11/23 09:14:04;;;;;;;;;2.50;2.50;;;;;20.53;28.97;102403.50;5096057;27;45754;-54
2021/11/23 09:16:34;;;;;;;;;2.00;1.75;;;;;20.50;29.16;102400.09;5112433;27;46279;-52
2021/11/23 09:19:00;;;;;;;;;3.75;3.75;;;;;20.48;29.34;102408.06;5096480;27;45819;-55
2021/11/23 09:21:27;;;;;;;;;3.00;3.00;;;;;20.46;28.92;102414.25;5097113;27;45499;-53
2021/11/23 09:23:54;;;;;;;;;3.25;3.25;;;;;20.44;29.05;102416.94;5096648;27;45377;-56
2021/11/23 09:26:20;;;;;;;;;2.75;2.75;;;;;20.44;28.75;102422.22;5095966;27;46244;-52
2021/11/23 09:28:46;;;;;;;;;4.00;3.50;;;;;20.42;28.94;102417.91;5112904;27;46058;-55
2021/11/23 09:31:11;;;;;;;;;4.25;3.00;;;;;20.39;29.31;102424.97;5096862;27;45388;-51
2021/11/23 09:33:36;;;;;;;;;3.50;3.50;;;;;20.37;29.29;102421.53;5097049;27;45597;-56
2021/11/23 09:36:02;;;;;;;;;2.50;2.00;;;;;20.37;28.73;102420.69;5096329;27;45686;-57
2021/11/23 09:38:27;;;;;;;;;3.50;2.00;;;;;20.35;28.89;102423.34;5096515;27;45353;-53
2021/11/23 09:40:53;;;;;;;;;3.00;3.00;;;;;20.32;28.97;102420.81;5096443;27;45514;-57
2021/11/23 09:43:18;;;;;;;;;3.00;3.00;;;;;20.32;28.84;102423.44;5096831;27;45547;-57
2021/11/23 09:45:44;;;;;;;;;2.50;2.50;;;;;20.31;28.62;102420.84;5096209;27;46916;-54
2021/11/23 09:48:10;;;;;;;;;3.75;2.50;;;;;20.29;28.81;102417.38;5096297;27;45364;-58
2021/11/23 09:50:41;;;;;;;;;3.75;3.75;;;;;20.28;28.94;102427.06;5096370;27;45341;-50
2021/11/23 09:53:09;;;;;;;;;2.25;2.25;;;;;20.25;28.58;102413.97;5096385;27;45365;-57
2021/11/23 09:55:35;;;;;;;;;2.00;2.00;;;;;20.23;28.38;102423.69;5096172;27;46173;-56
2021/11/23 09:58:00;;;;;;;;;2.00;2.00;;;;;20.22;28.79;102416.72;5096102;27;45242;-56
2021/11/23 10:00:44;;;;;;;;;2.25;2.25;;;;;20.21;28.21;102425.53;5096923;27;45367;-59
2021/11/23 10:03:26;;;;;;;;;2.25;2.25;;;;;20.18;28.67;102420.34;5099877;27;45468;-57
2021/11/23 10:05:51;;;;;;;;;2.25;1.75;;;;;20.18;28.45;102415.06;5098839;27;46517;-55
2021/11/23 10:08:19;;;;;;;;;4.50;2.75;;;;;20.14;27.95;102409.03;5099814;27;45404;-51
2021/11/23 10:10:45;;;;;;;;;2.00;2.00;;;;;20.15;28.19;102404.63;5099987;27;45420;-51
2021/11/23 10:13:11;;;;;;;;;4.00;4.00;;;;;20.13;27.99;102401.16;5099890;27;45188;-53
2021/11/23 10:15:40;;;;;;;;;3.00;2.50;;;;;20.13;28.29;102401.16;5098679;27;47468;-51
2021/11/23 10:18:19;;;;;;;;;1.25;1.25;;;;;20.15;28.19;102407.25;5099502;27;45534;-56
2021/11/23 10:20:54;;;;;;;;;3.00;3.00;;;;;20.15;27.98;102407.25;5100500;27;45256;-56
2021/11/23 10:23:29;;;;;;;;;2.25;1.50;;;;;20.13;27.79;102404.69;5100529;27;45492;-55
2021/11/23 10:26:12;;;;;;;;;2.50;2.50;;;;;20.14;27.91;102402.91;5099324;27;46061;-49
2021/11/23 10:28:40;;;;;;;;;2.00;2.00;;;;;20.13;27.79;102395.91;5098364;27;45686;-54
2021/11/23 10:31:06;;;;;;;;;1.25;1.25;;;;;20.12;27.46;102399.47;5099764;27;45410;-56
2021/11/23 10:33:34;;;;;;;;;3.25;1.00;;;;;20.10;27.99;102390.75;5099813;27;45567;-55
2021/11/23 10:36:04;;;;;;;;;3.50;2.00;;;;;20.11;27.73;102408.28;5098336;27;47217;-53
2021/11/23 10:38:31;;;;;;;;;1.00;1.00;;;;;20.10;27.66;102401.28;5099889;27;45329;-52
2021/11/23 10:41:22;;;;;;;;;1.50;1.50;;;;;20.09;27.73;102392.50;5115355;27;45423;-48
2021/11/23 10:43:57;;;;;;;;;2.50;2.00;;;;;20.07;27.35;102395.19;5099344;27;45448;-50
2021/11/23 10:46:23;;;;;;;;;1.50;1.50;;;;;20.05;27.82;102389.09;5097660;27;46170;-48
2021/11/23 10:48:57;;;;;;;;;2.00;2.00;;;;;20.06;27.42;102388.19;5099196;27;45418;-49
2021/11/23 10:51:24;;;;;;;;;1.00;1.00;;;;;20.04;27.58;102382.09;5099432;27;45406;-44
2021/11/23 10:53:50;;;;;;;;;2.00;2.00;;;;;20.01;27.18;102378.72;5099308;27;45303;-45
2021/11/23 10:56:21;;;;;;;;;1.00;1.00;;;;;20.01;27.12;102373.44;5099362;27;45221;-53
2021/11/23 10:58:48;;;;;;;;;2.00;2.00;;;;;20.00;27.25;102369.09;5099492;27;45326;-50
2021/11/23 11:01:16;;;;;;;;;1.00;1.00;;;;;20.00;27.14;102369.97;5100011;27;45428;-52
2021/11/23 11:03:42;;;;;;;;;1.75;1.75;;;;;19.98;27.18;102374.41;5115397;27;45575;-50
2021/11/23 11:06:09;;;;;;;;;1.25;1.25;;;;;19.94;27.67;102354.34;5098580;27;46124;-47
2021/11/23 11:08:53;;;;;;;;;1.75;1.75;;;;;19.93;27.50;102360.50;5099665;27;45688;-51
2021/11/23 11:11:19;;;;;;;;;1.00;1.00;;;;;19.91;27.51;102370.19;5098999;27;45470;-49
2021/11/23 11:13:54;;;;;;;;;3.00;1.75;;;;;19.88;27.30;102367.69;5099489;27;45368;-50
2021/11/23 11:16:21;;;;;;;;;2.00;2.00;;;;;19.85;26.96;102358.03;5098737;27;45380;-51
2021/11/23 11:19:16;;;;;;;;;2.50;2.50;;;;;19.83;27.14;102354.63;5098919;27;45306;-48
2021/11/23 11:21:47;;;;;;;;;1.00;1.00;;;;;19.82;27.28;102349.38;5084692;27;45287;-47